Time;durP1;ratioP1;P1;durP2;ratioP2;P2;SDS_P1;SDS_P2;PMS_P1;PMS_P2;Temp;Humidity;BMP_temperature;BMP_pressure;BME280_temperature;BME280_humidity;BME280_pressure;Samples;Min_cycle;Max_cycle;Signal;HPM_P1;HPM_P2
2023/11/16 00:01:58;;;;;;;4.63;2.20;;;6.90;99.90;;;;;;4224450;27;20209;-80
2023/11/16 00:04:00;;;;;;;4.40;2.03;;;6.90;99.90;;;;;;4226851;28;20792;-80
2023/11/16 00:06:02;;;;;;;5.67;1.97;;;6.90;99.90;;;;;;4228137;28;20479;-80
2023/11/16 00:08:06;;;;;;;6.87;2.40;;;6.90;99.90;;;;;;4223185;28;20788;-80
2023/11/16 00:10:10;;;;;;;8.73;2.30;;;6.90;99.90;;;;;;4219875;28;20232;-80
2023/11/16 00:12:12;;;;;;;7.83;2.50;;;6.90;99.90;;;;;;4224941;27;20485;-80
2023/11/16 00:14:14;;;;;;;4.10;2.20;;;6.80;99.90;;;;;;4223903;28;20828;-80
2023/11/16 00:16:19;;;;;;;8.17;2.50;;;6.80;99.90;;;;;;4222240;28;20467;-80
2023/11/16 00:18:22;;;;;;;4.90;2.47;;;6.80;99.90;;;;;;4224443;28;20193;-80
2023/11/16 00:20:23;;;;;;;12.40;3.13;;;6.70;99.90;;;;;;4217138;28;20443;-80
2023/11/16 00:22:26;;;;;;;7.13;2.60;;;6.70;99.90;;;;;;4222407;27;20434;-80
2023/11/16 00:24:28;;;;;;;5.87;2.40;;;6.70;99.90;;;;;;4221203;28;20473;-80
2023/11/16 00:26:30;;;;;;;6.30;2.87;;;6.70;99.90;;;;;;4227743;27;20471;-81
2023/11/16 00:28:32;;;;;;;11.57;2.60;;;6.70;99.90;;;;;;4220967;28;20454;-81
2023/11/16 00:30:34;;;;;;;5.87;2.50;;;6.70;99.90;;;;;;4227748;28;20197;-80
2023/11/16 00:32:39;;;;;;;7.70;2.73;;;6.60;99.90;;;;;;4218185;28;20533;-81
2023/11/16 00:34:41;;;;;;;9.07;3.13;;;6.60;99.90;;;;;;4219666;27;20465;-80
2023/11/16 00:36:43;;;;;;;6.87;2.47;;;6.60;99.90;;;;;;4221885;28;20886;-80
2023/11/16 00:38:45;;;;;;;9.83;2.47;;;6.60;99.90;;;;;;4216753;28;20883;-80
2023/11/16 00:40:46;;;;;;;10.77;2.93;;;6.50;99.90;;;;;;4222421;28;20447;-80
2023/11/16 00:42:50;;;;;;;5.03;2.33;;;6.50;99.90;;;;;;4226305;27;20200;-80
2023/11/16 00:44:52;;;;;;;6.27;2.43;;;6.50;99.90;;;;;;4229881;28;20234;-79
2023/11/16 00:46:54;;;;;;;12.87;2.73;;;6.50;99.90;;;;;;4229826;28;20914;-80
2023/11/16 00:48:58;;;;;;;11.57;2.40;;;6.50;99.90;;;;;;4231352;28;20443;-80
2023/11/16 00:51:00;;;;;;;8.10;2.60;;;6.50;99.90;;;;;;4233149;28;20460;-80
2023/11/16 00:53:01;;;;;;;8.67;2.40;;;6.50;99.90;;;;;;4236302;27;20502;-80
2023/11/16 00:55:04;;;;;;;8.87;2.57;;;6.40;99.90;;;;;;4228556;28;20467;-80
2023/11/16 00:57:05;;;;;;;8.77;2.50;;;6.40;99.90;;;;;;4226283;28;20851;-80
2023/11/16 00:59:10;;;;;;;8.37;2.33;;;6.40;99.90;;;;;;4218338;28;20209;-80
2023/11/16 01:01:12;;;;;;;5.47;2.50;;;6.30;99.90;;;;;;4218871;28;20491;-80
2023/11/16 01:03:14;;;;;;;4.83;1.87;;;6.30;99.90;;;;;;4220453;28;20468;-80
2023/11/16 01:05:18;;;;;;;8.30;2.17;;;6.30;99.90;;;;;;4221632;28;20457;-80
2023/11/16 01:07:21;;;;;;;4.20;2.20;;;6.30;99.90;;;;;;4222042;28;20465;-80
2023/11/16 01:09:23;;;;;;;8.47;2.77;;;6.30;99.90;;;;;;4219124;28;20564;-80
2023/11/16 01:11:28;;;;;;;4.40;2.10;;;6.30;99.90;;;;;;4220900;28;20455;-80
2023/11/16 01:13:38;;;;;;;3.97;2.23;;;6.30;99.90;;;;;;4229119;27;20220;-80
2023/11/16 01:15:40;;;;;;;7.20;2.20;;;6.30;99.90;;;;;;4223084;28;20970;-80
2023/11/16 01:17:45;;;;;;;9.90;2.80;;;6.20;99.90;;;;;;4225599;28;20503;-80
2023/11/16 01:19:47;;;;;;;8.40;1.93;;;6.20;99.90;;;;;;4227647;28;20964;-80
2023/11/16 01:21:54;;;;;;;5.37;2.33;;;6.20;99.90;;;;;;4222074;28;20449;-80
2023/11/16 01:24:02;;;;;;;5.80;2.37;;;6.20;99.90;;;;;;4221822;28;20466;-80
2023/11/16 01:26:13;;;;;;;4.10;2.20;;;6.20;99.90;;;;;;4225064;28;20224;-80
2023/11/16 01:28:16;;;;;;;4.67;1.87;;;6.10;99.90;;;;;;4222992;28;20513;-79
2023/11/16 01:30:18;;;;;;;4.97;2.10;;;6.10;99.90;;;;;;4219466;28;20450;-80
2023/11/16 01:32:20;;;;;;;6.97;2.17;;;6.10;99.90;;;;;;4224117;28;20438;-80
2023/11/16 01:34:22;;;;;;;8.63;2.20;;;6.00;99.90;;;;;;4221159;28;20474;-79
2023/11/16 01:36:26;;;;;;;7.43;2.00;;;6.10;99.90;;;;;;4221039;28;20503;-80
2023/11/16 01:38:30;;;;;;;4.70;2.20;;;6.10;99.90;;;;;;4221524;28;20450;-80
2023/11/16 01:40:32;;;;;;;6.33;2.57;;;6.00;99.90;;;;;;4223782;28;20449;-80
2023/11/16 01:42:34;;;;;;;4.83;2.30;;;6.00;99.90;;;;;;4221009;28;20449;-79
2023/11/16 01:44:36;;;;;;;6.77;2.00;;;6.10;99.90;;;;;;4225374;28;20454;-80
2023/11/16 01:46:40;;;;;;;5.63;1.97;;;6.00;99.90;;;;;;4224142;28;20463;-80
2023/11/16 01:48:43;;;;;;;6.87;2.90;;;6.00;99.90;;;;;;4223085;28;20447;-80
2023/11/16 01:50:45;;;;;;;7.97;2.27;;;6.10;99.90;;;;;;4220212;28;20454;-80
2023/11/16 01:52:47;;;;;;;11.10;2.50;;;6.10;99.90;;;;;;4220665;28;20993;-80
2023/11/16 01:54:50;;;;;;;5.73;2.27;;;6.10;99.90;;;;;;4216624;28;20450;-80
2023/11/16 01:56:53;;;;;;;9.83;2.40;;;6.10;99.90;;;;;;4222388;28;20474;-80
2023/11/16 01:58:59;;;;;;;11.10;2.70;;;6.10;99.90;;;;;;4222220;28;20457;-80
2023/11/16 02:01:02;;;;;;;6.40;2.90;;;6.10;99.90;;;;;;4222345;28;20542;-80
2023/11/16 02:03:05;;;;;;;7.17;2.53;;;6.10;99.90;;;;;;4220890;28;20443;-80
2023/11/16 02:05:08;;;;;;;12.40;2.90;;;6.40;99.90;;;;;;4221450;28;20461;-80
2023/11/16 02:07:10;;;;;;;13.00;3.10;;;6.10;99.90;;;;;;4216502;28;20473;-80
2023/11/16 02:09:12;;;;;;;7.10;2.20;;;6.10;99.90;;;;;;4221856;28;20496;-80
2023/11/16 02:11:16;;;;;;;10.83;2.50;;;6.10;99.90;;;;;;4227125;27;21008;-81
2023/11/16 02:13:18;;;;;;;6.53;2.30;;;6.10;99.90;;;;;;4222516;28;20213;-80
2023/11/16 02:15:20;;;;;;;4.40;1.97;;;6.20;99.90;;;;;;4225864;27;20446;-80
2023/11/16 02:17:23;;;;;;;6.47;2.27;;;6.10;99.90;;;;;;4223426;28;20453;-80
2023/11/16 02:19:30;;;;;;;13.60;2.40;;;6.20;99.90;;;;;;4220881;28;20458;-80
2023/11/16 02:21:40;;;;;;;6.20;2.60;;;6.20;99.90;;;;;;4225316;27;20212;-80
2023/11/16 02:23:46;;;;;;;6.47;1.80;;;6.20;99.90;;;;;;4225122;28;20449;-80
2023/11/16 02:25:50;;;;;;;5.97;2.43;;;6.20;99.90;;;;;;4222837;28;20520;-80
2023/11/16 02:27:54;;;;;;;7.77;2.43;;;6.20;99.90;;;;;;4225765;28;20450;-80
2023/11/16 02:29:57;;;;;;;6.73;2.20;;;6.30;99.90;;;;;;4223364;27;20473;-81
2023/11/16 02:31:59;;;;;;;7.17;2.00;;;6.30;99.90;;;;;;4223689;28;20544;-80
2023/11/16 02:34:01;;;;;;;2.87;1.90;;;6.30;99.90;;;;;;4231227;27;20477;-79
2023/11/16 02:36:03;;;;;;;5.13;2.00;;;6.30;99.90;;;;;;4224402;28;20278;-80
2023/11/16 02:38:06;;;;;;;9.97;2.30;;;6.30;99.90;;;;;;4232406;28;20211;-79
2023/11/16 02:40:11;;;;;;;5.07;2.30;;;6.30;99.90;;;;;;4232359;28;20458;-80
2023/11/16 02:42:13;;;;;;;5.97;1.90;;;6.30;99.90;;;;;;4222632;28;20299;-80
2023/11/16 02:44:18;;;;;;;6.37;2.80;;;6.30;99.90;;;;;;4222519;28;20445;-80
2023/11/16 02:46:20;;;;;;;6.40;2.20;;;6.40;99.90;;;;;;4226495;28;20231;-80
2023/11/16 02:48:22;;;;;;;7.40;2.90;;;6.40;99.90;;;;;;4224645;28;20208;-80
2023/11/16 02:50:23;;;;;;;5.97;2.20;;;6.40;99.90;;;;;;4226420;27;20205;-79
2023/11/16 02:52:25;;;;;;;7.00;2.43;;;6.40;99.90;;;;;;4226446;27;20203;-80
2023/11/16 02:54:28;;;;;;;7.33;2.20;;;6.40;99.90;;;;;;4226723;28;21020;-80
2023/11/16 02:56:30;;;;;;;9.23;2.23;;;6.40;99.90;;;;;;4228629;28;20462;-79
2023/11/16 02:58:32;;;;;;;8.63;2.20;;;6.40;99.90;;;;;;4223066;28;20462;-80
2023/11/16 03:00:34;;;;;;;6.37;1.90;;;6.40;99.90;;;;;;4228865;27;21024;-79
2023/11/16 03:02:36;;;;;;;7.70;2.10;;;6.50;99.90;;;;;;4224269;27;20504;-80
2023/11/16 03:04:38;;;;;;;8.97;2.17;;;6.50;99.90;;;;;;4221001;28;20691;-79
2023/11/16 03:06:40;;;;;;;5.93;2.20;;;6.50;99.90;;;;;;4224291;28;20473;-79
2023/11/16 03:08:41;;;;;;;7.03;1.90;;;6.50;99.90;;;;;;4232575;28;20201;-79
2023/11/16 03:10:43;;;;;;;9.10;2.23;;;6.50;99.90;;;;;;4239688;27;20300;-79
2023/11/16 03:12:47;;;;;;;4.90;1.83;;;6.50;99.90;;;;;;4234024;27;20213;-79
2023/11/16 03:14:49;;;;;;;10.27;2.30;;;6.60;99.90;;;;;;4233105;28;20201;-79
2023/11/16 03:16:51;;;;;;;6.17;1.77;;;6.60;99.90;;;;;;4231611;27;20238;-79
2023/11/16 03:18:53;;;;;;;6.93;2.00;;;6.60;99.90;;;;;;4226920;28;20229;-79
2023/11/16 03:20:55;;;;;;;7.17;1.87;;;6.60;99.90;;;;;;4226948;28;20599;-79
2023/11/16 03:22:56;;;;;;;10.00;2.03;;;6.60;99.90;;;;;;4217386;28;20291;-79
2023/11/16 03:24:59;;;;;;;6.00;1.80;;;6.70;99.90;;;;;;4223506;27;20455;-79
2023/11/16 03:27:03;;;;;;;7.23;2.53;;;6.70;99.90;;;;;;4221364;28;20231;-79
2023/11/16 03:29:06;;;;;;;5.10;2.27;;;6.60;99.90;;;;;;4215699;28;20684;-79
2023/11/16 03:31:09;;;;;;;7.27;2.10;;;6.60;99.90;;;;;;4224245;27;20287;-79
2023/11/16 03:33:12;;;;;;;8.50;2.50;;;6.60;99.90;;;;;;4223557;28;20235;-79
2023/11/16 03:35:15;;;;;;;7.70;2.03;;;6.70;99.90;;;;;;4222922;28;20224;-79
2023/11/16 03:37:19;;;;;;;8.03;2.30;;;6.70;99.90;;;;;;4223274;27;20482;-79
2023/11/16 03:39:22;;;;;;;8.27;2.33;;;6.60;99.90;;;;;;4220143;28;20297;-80
2023/11/16 03:41:24;;;;;;;7.50;2.13;;;6.70;99.90;;;;;;4229156;28;20211;-78
2023/11/16 03:43:26;;;;;;;6.33;2.17;;;6.60;99.90;;;;;;4219095;28;20274;-79
2023/11/16 03:45:30;;;;;;;9.83;2.30;;;6.60;99.90;;;;;;4224080;28;20252;-79
2023/11/16 03:47:31;;;;;;;6.87;1.90;;;6.70;99.90;;;;;;4219005;28;20745;-79
2023/11/16 03:49:33;;;;;;;6.60;1.90;;;6.70;99.90;;;;;;4225062;28;20207;-79
2023/11/16 03:51:35;;;;;;;7.93;2.07;;;6.70;99.90;;;;;;4221665;28;20675;-79
2023/11/16 03:53:36;;;;;;;13.40;2.03;;;6.70;99.90;;;;;;4222653;28;20217;-79
2023/11/16 03:55:38;;;;;;;5.13;1.67;;;6.80;99.90;;;;;;4226594;27;20473;-79
2023/11/16 03:57:39;;;;;;;7.17;1.97;;;6.80;99.90;;;;;;4227011;28;20184;-79
2023/11/16 03:59:41;;;;;;;9.60;1.90;;;6.80;99.90;;;;;;4234812;28;20201;-80
2023/11/16 04:01:45;;;;;;;7.00;1.50;;;6.80;99.90;;;;;;4228347;28;20876;-79
2023/11/16 04:03:47;;;;;;;7.23;1.90;;;6.80;99.90;;;;;;4222274;28;20281;-79
2023/11/16 04:05:48;;;;;;;8.43;1.83;;;6.80;99.90;;;;;;4222050;28;20462;-79
2023/11/16 04:07:49;;;;;;;11.37;1.80;;;6.90;99.90;;;;;;4222516;28;20224;-79
2023/11/16 04:09:52;;;;;;;4.10;1.60;;;6.80;99.90;;;;;;4220337;27;20512;-79
2023/11/16 04:11:53;;;;;;;10.97;2.83;;;6.80;99.90;;;;;;4215917;28;20491;-79
2023/11/16 04:13:55;;;;;;;6.50;1.67;;;6.80;99.90;;;;;;4219549;28;20578;-79
2023/11/16 04:15:56;;;;;;;7.97;1.67;;;6.80;99.90;;;;;;4225888;28;20235;-79
2023/11/16 04:18:00;;;;;;;7.70;2.37;;;6.80;99.90;;;;;;4220551;27;20200;-79
2023/11/16 04:20:02;;;;;;;5.80;1.83;;;6.80;99.90;;;;;;4215773;28;20232;-79
2023/11/16 04:22:06;;;;;;;7.90;1.80;;;6.80;99.90;;;;;;4223141;28;20208;-79
2023/11/16 04:24:11;;;;;;;7.33;2.07;;;6.90;99.90;;;;;;4224940;27;20210;-79
2023/11/16 04:26:13;;;;;;;6.60;1.60;;;6.90;99.90;;;;;;4220007;27;20659;-79
2023/11/16 04:28:15;;;;;;;5.43;1.70;;;6.90;99.90;;;;;;4226033;27;20520;-79
2023/11/16 04:30:18;;;;;;;7.60;2.00;;;6.90;99.90;;;;;;4221669;28;20450;-78
2023/11/16 04:32:23;;;;;;;5.83;1.77;;;6.90;99.90;;;;;;4223614;28;20877;-79
2023/11/16 04:34:27;;;;;;;7.63;1.90;;;6.90;99.90;;;;;;4222502;27;20236;-79
2023/11/16 04:36:29;;;;;;;5.80;1.40;;;6.90;99.90;;;;;;4224424;28;20231;-79
2023/11/16 04:38:31;;;;;;;4.40;1.70;;;7.00;99.90;;;;;;4226006;28;20529;-79
2023/11/16 04:40:36;;;;;;;3.80;1.43;;;7.00;99.90;;;;;;4219884;28;20733;-79
2023/11/16 04:42:39;;;;;;;4.27;1.80;;;7.00;99.90;;;;;;4219389;28;21174;-79
2023/11/16 04:44:44;;;;;;;6.83;1.67;;;7.00;99.90;;;;;;4219263;28;20201;-79
2023/11/16 04:46:48;;;;;;;9.10;1.57;;;6.90;99.90;;;;;;4222848;28;20256;-79
2023/11/16 04:48:50;;;;;;;6.10;1.40;;;6.90;99.90;;;;;;4222043;28;20209;-79
2023/11/16 04:50:55;;;;;;;5.87;1.77;;;7.00;99.90;;;;;;4217413;28;20209;-78
2023/11/16 04:52:57;;;;;;;3.63;1.33;;;6.90;99.90;;;;;;4221522;28;20866;-78
2023/11/16 04:54:59;;;;;;;6.30;1.90;;;7.00;99.90;;;;;;4218860;28;20224;-79
2023/11/16 04:57:01;;;;;;;10.20;2.03;;;6.90;99.90;;;;;;4223943;28;20295;-79
2023/11/16 04:59:04;;;;;;;6.07;1.73;;;7.20;99.90;;;;;;4223011;28;20204;-78
2023/11/16 05:01:06;;;;;;;2.97;1.70;;;6.90;99.90;;;;;;4221195;28;20245;-78
2023/11/16 05:03:08;;;;;;;5.10;1.50;;;6.90;99.90;;;;;;4223062;28;20665;-78
2023/11/16 05:05:09;;;;;;;3.73;1.37;;;6.90;99.90;;;;;;4219799;28;20206;-77
2023/11/16 05:07:12;;;;;;;7.57;1.73;;;6.90;99.90;;;;;;4216903;28;20196;-75
2023/11/16 05:09:17;;;;;;;7.53;1.60;;;6.90;99.90;;;;;;4213576;28;20205;-79
2023/11/16 05:11:22;;;;;;;7.23;1.90;;;6.90;99.90;;;;;;4221943;28;20501;-75
2023/11/16 05:13:24;;;;;;;3.60;1.70;;;6.90;99.90;;;;;;4220618;28;20242;-77
2023/11/16 05:15:25;;;;;;;7.03;1.80;;;6.90;99.90;;;;;;4225513;28;20819;-75
2023/11/16 05:17:27;;;;;;;8.80;1.70;;;6.90;99.90;;;;;;4221047;28;20205;-75
2023/11/16 05:19:29;;;;;;;7.27;1.60;;;6.90;99.90;;;;;;4218247;28;20625;-76
2023/11/16 05:21:31;;;;;;;9.70;1.50;;;6.90;99.90;;;;;;4218004;28;20500;-76
2023/11/16 05:23:35;;;;;;;3.97;1.63;;;6.70;99.90;;;;;;4216911;28;20258;-75
2023/11/16 05:25:37;;;;;;;6.97;1.60;;;6.80;99.90;;;;;;4219261;28;20244;-78
2023/11/16 05:27:39;;;;;;;5.13;1.60;;;6.80;99.90;;;;;;4221649;28;20439;-76
2023/11/16 05:29:41;;;;;;;6.30;1.77;;;6.80;99.90;;;;;;4222202;28;20544;-77
2023/11/16 05:31:43;;;;;;;3.87;1.70;;;6.80;99.90;;;;;;4216034;28;20477;-76
2023/11/16 05:33:45;;;;;;;9.30;1.77;;;6.80;99.90;;;;;;4216288;28;20296;-76
2023/11/16 05:35:48;;;;;;;6.30;1.57;;;6.70;99.90;;;;;;4218871;28;20262;-77
2023/11/16 05:37:49;;;;;;;6.40;1.43;;;6.80;99.90;;;;;;4223454;28;20223;-78
2023/11/16 05:39:53;;;;;;;4.27;1.40;;;6.80;99.90;;;;;;4231784;28;20200;-78
2023/11/16 05:41:54;;;;;;;6.67;1.47;;;6.70;99.90;;;;;;4231123;28;20578;-77
2023/11/16 05:43:56;;;;;;;4.80;1.70;;;6.70;99.90;;;;;;4227486;28;20221;-75
2023/11/16 05:45:57;;;;;;;6.93;1.50;;;6.70;99.90;;;;;;4221892;28;20240;-76
2023/11/16 05:47:59;;;;;;;3.83;1.20;;;6.70;99.90;;;;;;4229841;28;20439;-76
2023/11/16 05:50:01;;;;;;;4.77;1.37;;;6.70;99.90;;;;;;4225452;28;20207;-76
2023/11/16 05:52:03;;;;;;;10.73;1.30;;;6.70;99.90;;;;;;4228895;28;20216;-76
2023/11/16 05:54:08;;;;;;;7.60;1.60;;;6.80;99.90;;;;;;4218405;28;20312;-76
2023/11/16 05:56:11;;;;;;;4.10;1.20;;;6.80;99.90;;;;;;4216741;28;20704;-79
2023/11/16 05:58:13;;;;;;;5.57;1.37;;;6.80;99.90;;;;;;4224101;28;20197;-76
2023/11/16 06:00:17;;;;;;;5.23;1.63;;;6.80;99.90;;;;;;4222118;28;20222;-77
2023/11/16 06:02:19;;;;;;;4.17;1.20;;;6.80;99.90;;;;;;4229015;28;20449;-75
2023/11/16 06:04:22;;;;;;;7.40;1.77;;;6.80;99.90;;;;;;4220656;27;20205;-78
2023/11/16 06:06:23;;;;;;;3.23;1.40;;;6.80;99.90;;;;;;4224772;28;20538;-78
2023/11/16 06:08:26;;;;;;;3.87;1.33;;;6.80;99.90;;;;;;4219393;28;20668;-74
2023/11/16 06:10:28;;;;;;;7.03;1.40;;;6.80;99.90;;;;;;4221399;28;20455;-79
2023/11/16 06:12:31;;;;;;;5.27;1.40;;;6.80;99.90;;;;;;4221828;28;20695;-78
2023/11/16 06:14:35;;;;;;;5.73;1.70;;;6.80;99.90;;;;;;4224163;28;20253;-75
2023/11/16 06:16:43;;;;;;;4.40;1.20;;;6.80;99.90;;;;;;4224207;28;21053;-75
2023/11/16 06:18:45;;;;;;;4.70;1.57;;;6.80;99.90;;;;;;4223527;28;22049;-79
2023/11/16 06:20:47;;;;;;;8.40;1.80;;;6.80;99.90;;;;;;4224909;28;20200;-76
2023/11/16 06:22:50;;;;;;;6.67;1.30;;;6.80;99.90;;;;;;4228317;27;20446;-75
2023/11/16 06:24:52;;;;;;;5.50;1.40;;;6.80;99.90;;;;;;4222312;28;20213;-75
2023/11/16 06:26:54;;;;;;;6.93;1.30;;;6.80;99.90;;;;;;4221293;28;20730;-75
2023/11/16 06:28:57;;;;;;;6.40;1.37;;;6.80;99.90;;;;;;4221768;28;20230;-75
2023/11/16 06:30:59;;;;;;;4.00;1.07;;;6.80;99.90;;;;;;4221789;28;20212;-75
2023/11/16 06:33:02;;;;;;;5.20;1.20;;;6.80;99.90;;;;;;4222048;27;20200;-75
2023/11/16 06:35:04;;;;;;;7.90;1.57;;;6.80;99.90;;;;;;4223289;28;20266;-75
2023/11/16 06:37:08;;;;;;;2.73;1.00;;;6.80;99.90;;;;;;4217943;28;20788;-75
2023/11/16 06:39:10;;;;;;;7.23;2.33;;;6.80;99.90;;;;;;4221798;28;20454;-79
2023/11/16 06:41:12;;;;;;;7.23;1.57;;;6.80;99.90;;;;;;4221803;27;20537;-75
2023/11/16 06:43:15;;;;;;;5.87;1.40;;;6.80;99.90;;;;;;4222175;28;20256;-76
2023/11/16 06:45:19;;;;;;;4.93;1.43;;;6.80;99.90;;;;;;4219622;28;20514;-75
2023/11/16 06:47:22;;;;;;;6.83;1.20;;;6.80;99.90;;;;;;4218164;28;20208;-77
2023/11/16 06:49:26;;;;;;;7.03;1.53;;;6.80;99.90;;;;;;4219616;28;20213;-76
2023/11/16 06:51:28;;;;;;;8.30;2.53;;;6.80;99.90;;;;;;4221744;27;20221;-75
2023/11/16 06:53:30;;;;;;;6.90;2.10;;;6.80;99.90;;;;;;4219973;28;20218;-78
2023/11/16 06:55:34;;;;;;;11.07;1.60;;;6.80;99.90;;;;;;4222706;28;20486;-75
2023/11/16 06:57:36;;;;;;;4.47;1.37;;;6.90;99.90;;;;;;4221418;28;20200;-75
2023/11/16 06:59:38;;;;;;;3.00;0.97;;;6.90;99.90;;;;;;4219242;28;20485;-75
2023/11/16 07:01:43;;;;;;;6.10;1.20;;;6.90;99.90;;;;;;4221928;27;20515;-75
2023/11/16 07:03:46;;;;;;;5.93;1.30;;;6.90;99.90;;;;;;4221571;28;20573;-78
2023/11/16 07:05:50;;;;;;;3.67;1.30;;;6.90;99.90;;;;;;4222924;27;20316;-74
2023/11/16 07:07:52;;;;;;;5.47;1.20;;;6.90;99.90;;;;;;4223038;28;20492;-76
2023/11/16 07:09:54;;;;;;;4.33;1.27;;;6.90;99.90;;;;;;4220306;28;20740;-74
2023/11/16 07:11:57;;;;;;;4.10;1.30;;;6.90;99.90;;;;;;4218891;27;20200;-75
2023/11/16 07:13:59;;;;;;;6.33;1.53;;;6.90;99.90;;;;;;4221156;28;20601;-75
2023/11/16 07:16:03;;;;;;;4.80;1.40;;;6.90;99.90;;;;;;4217512;28;20242;-74
2023/11/16 07:18:07;;;;;;;8.27;2.17;;;7.00;99.90;;;;;;4217937;28;20478;-76
2023/11/16 07:20:11;;;;;;;6.03;1.40;;;6.90;99.90;;;;;;4220257;28;20709;-74
2023/11/16 07:22:13;;;;;;;5.10;1.20;;;6.90;99.90;;;;;;4224306;27;20262;-74
2023/11/16 07:24:15;;;;;;;8.57;1.87;;;7.00;99.90;;;;;;4226492;27;20257;-75
2023/11/16 07:26:18;;;;;;;3.83;1.20;;;7.00;99.90;;;;;;4221073;28;20260;-76
2023/11/16 07:28:21;;;;;;;4.03;1.20;;;7.10;99.90;;;;;;4221899;28;20493;-76
2023/11/16 07:30:24;;;;;;;6.20;1.37;;;7.10;99.90;;;;;;4223091;28;20218;-75
2023/11/16 07:32:26;;;;;;;4.90;1.00;;;7.10;99.90;;;;;;4221731;27;20255;-74
2023/11/16 07:34:29;;;;;;;3.70;1.00;;;7.10;99.90;;;;;;4224003;28;20204;-76
2023/11/16 07:36:31;;;;;;;4.53;1.30;;;7.10;99.90;;;;;;4223780;28;20277;-76
2023/11/16 07:38:33;;;;;;;5.57;1.00;;;7.10;99.90;;;;;;4225091;27;20209;-74
2023/11/16 07:40:35;;;;;;;2.90;1.27;;;7.10;99.90;;;;;;4219901;27;20248;-76
2023/11/16 07:42:39;;;;;;;6.30;1.20;;;7.10;99.90;;;;;;4221937;28;20656;-75
2023/11/16 07:44:44;;;;;;;2.83;1.00;;;7.10;99.90;;;;;;4217577;28;20254;-76
2023/11/16 07:46:46;;;;;;;5.67;1.30;;;7.10;99.90;;;;;;4221805;28;20719;-74
2023/11/16 07:48:48;;;;;;;5.37;1.43;;;7.10;99.90;;;;;;4219005;28;20200;-75
2023/11/16 07:50:51;;;;;;;5.70;1.27;;;7.10;99.90;;;;;;4223132;28;20206;-74
2023/11/16 07:52:53;;;;;;;4.13;1.40;;;7.10;99.90;;;;;;4224100;28;20549;-74
2023/11/16 07:54:59;;;;;;;7.93;1.50;;;7.20;99.90;;;;;;4218756;28;20265;-74
2023/11/16 07:57:02;;;;;;;4.27;1.00;;;7.20;99.90;;;;;;4220144;28;20247;-76
2023/11/16 07:59:04;;;;;;;8.37;1.67;;;7.20;99.90;;;;;;4218816;28;20234;-79
2023/11/16 08:01:11;;;;;;;3.93;1.30;;;7.10;99.90;;;;;;4220824;28;20209;-75
2023/11/16 08:05:33;;;;;;;5.17;1.20;;;7.10;99.90;;;;;;4223486;28;20224;-77
2023/11/16 08:07:37;;;;;;;8.20;1.67;;;7.10;99.90;;;;;;4221885;28;20682;-76
2023/11/16 08:09:39;;;;;;;5.53;1.47;;;7.20;99.90;;;;;;4217679;28;20193;-78
2023/11/16 08:11:42;;;;;;;5.43;1.23;;;7.20;99.90;;;;;;4220712;28;20204;-79
2023/11/16 08:13:45;;;;;;;4.57;1.57;;;7.20;99.90;;;;;;4221316;28;20202;-77
2023/11/16 08:15:52;;;;;;;9.50;3.10;;;7.20;99.90;;;;;;4214724;28;20234;-83
2023/11/16 08:17:54;;;;;;;10.07;4.20;;;7.20;99.90;;;;;;4221062;28;20204;-79
2023/11/16 08:19:57;;;;;;;12.50;2.10;;;7.30;99.90;;;;;;4221247;27;20731;-79
2023/11/16 08:21:59;;;;;;;8.17;1.77;;;7.30;99.90;;;;;;4228318;27;20204;-78
2023/11/16 08:24:01;;;;;;;5.57;1.50;;;7.20;99.90;;;;;;4223166;28;20619;-81
2023/11/16 08:26:05;;;;;;;4.10;1.50;;;7.30;99.90;;;;;;4224746;27;20613;-79
2023/11/16 08:28:08;;;;;;;4.77;1.50;;;7.30;99.90;;;;;;4222144;28;20262;-76
2023/11/16 08:30:11;;;;;;;6.40;1.50;;;7.30;99.90;;;;;;4221304;28;20259;-81
2023/11/16 08:32:12;;;;;;;6.80;1.30;;;7.30;99.90;;;;;;4223833;28;20250;-79
2023/11/16 08:34:16;;;;;;;7.37;1.83;;;7.30;99.90;;;;;;4224993;28;20209;-81
2023/11/16 08:36:20;;;;;;;3.27;1.30;;;7.60;99.90;;;;;;4219596;28;20237;-78
2023/11/16 08:38:25;;;;;;;5.40;1.57;;;7.10;99.90;;;;;;4219602;28;20208;-80
2023/11/16 08:40:29;;;;;;;5.07;1.30;;;7.30;99.90;;;;;;4226956;28;20656;-79
2023/11/16 08:42:39;;;;;;;4.87;1.57;;;7.30;99.90;;;;;;4218050;28;20284;-79
2023/11/16 08:44:44;;;;;;;5.70;1.20;;;7.40;99.90;;;;;;4220372;28;20274;-81
2023/11/16 08:46:52;;;;;;;6.93;1.47;;;7.40;99.90;;;;;;4217316;28;20228;-83
2023/11/16 08:48:54;;;;;;;5.00;1.20;;;7.40;99.90;;;;;;4222876;27;20567;-82
2023/11/16 08:50:55;;;;;;;6.37;1.90;;;7.40;99.90;;;;;;4221089;28;20215;-80
2023/11/16 08:53:00;;;;;;;3.27;1.30;;;7.40;99.90;;;;;;4218379;28;20296;-80
2023/11/16 08:55:05;;;;;;;7.03;1.33;;;7.40;99.90;;;;;;4218455;28;20259;-78
2023/11/16 08:57:09;;;;;;;5.60;1.10;;;7.30;99.90;;;;;;4216168;28;20224;-79
2023/11/16 08:59:12;;;;;;;7.47;1.63;;;7.40;99.90;;;;;;4225159;28;20224;-79
2023/11/16 09:01:17;;;;;;;5.43;1.50;;;7.40;99.90;;;;;;4216859;28;20229;-78
2023/11/16 09:03:18;;;;;;;4.23;1.30;;;7.40;99.90;;;;;;4225475;28;20283;-78
2023/11/16 09:05:20;;;;;;;5.83;1.13;;;7.40;99.90;;;;;;4220693;28;20202;-79
2023/11/16 09:07:22;;;;;;;6.00;1.27;;;7.40;99.90;;;;;;4222389;28;20587;-78
2023/11/16 09:09:37;;;;;;;12.87;1.30;;;7.40;99.90;;;;;;4217266;28;20214;-80
2023/11/16 09:11:40;;;;;;;5.20;1.40;;;7.50;99.90;;;;;;4218861;28;20204;-79
2023/11/16 09:13:43;;;;;;;6.50;1.33;;;7.50;99.90;;;;;;4219291;28;20254;-79
2023/11/16 09:15:44;;;;;;;5.47;1.27;;;7.50;99.90;;;;;;4223573;28;20235;-79
2023/11/16 09:17:48;;;;;;;8.30;1.27;;;7.50;99.90;;;;;;4222968;28;20864;-79
2023/11/16 09:19:52;;;;;;;5.97;1.90;;;7.50;99.90;;;;;;4220345;28;20220;-78
2023/11/16 09:21:54;;;;;;;10.83;2.40;;;7.60;99.90;;;;;;4225889;27;20209;-78
2023/11/16 09:23:56;;;;;;;4.07;1.50;;;7.50;99.90;;;;;;4218711;28;20239;-78
2023/11/16 09:26:00;;;;;;;7.50;1.50;;;7.60;99.90;;;;;;4216891;28;20228;-79
2023/11/16 09:28:02;;;;;;;5.63;1.20;;;7.60;99.90;;;;;;4220125;28;20705;-78
2023/11/16 09:30:07;;;;;;;3.07;1.20;;;7.60;99.90;;;;;;4215754;28;20216;-80
2023/11/16 09:32:10;;;;;;;2.63;1.30;;;7.60;99.90;;;;;;4218793;28;20794;-77
2023/11/16 09:34:19;;;;;;;4.77;1.30;;;7.60;99.90;;;;;;4221835;28;20225;-78
2023/11/16 09:36:26;;;;;;;5.90;1.50;;;7.60;99.90;;;;;;4217334;28;20237;-78
2023/11/16 09:38:28;;;;;;;7.00;1.40;;;7.60;99.90;;;;;;4219330;28;20205;-78
2023/11/16 09:40:30;;;;;;;6.60;1.50;;;7.70;99.90;;;;;;4216675;28;20210;-78
2023/11/16 09:42:33;;;;;;;6.67;1.00;;;7.70;99.90;;;;;;4214093;28;20672;-78
2023/11/16 09:44:40;;;;;;;4.30;1.23;;;7.70;99.90;;;;;;4220924;28;20617;-78
2023/11/16 09:46:47;;;;;;;11.73;1.60;;;7.80;99.90;;;;;;4221380;28;20728;-78
2023/11/16 09:48:53;;;;;;;7.37;1.60;;;7.90;99.90;;;;;;4218240;28;20205;-79
2023/11/16 09:50:55;;;;;;;4.83;1.20;;;7.70;99.90;;;;;;4220701;28;20208;-78
2023/11/16 09:52:56;;;;;;;8.10;1.57;;;7.80;99.90;;;;;;4218258;28;20208;-78
2023/11/16 09:55:00;;;;;;;10.47;1.47;;;7.80;99.90;;;;;;4219468;28;20206;-78
2023/11/16 09:57:02;;;;;;;5.10;1.43;;;7.80;99.90;;;;;;4219007;28;20226;-78
2023/11/16 09:59:13;;;;;;;6.47;1.37;;;7.80;99.90;;;;;;4218061;28;20230;-78
2023/11/16 10:01:17;;;;;;;5.53;1.90;;;7.90;99.90;;;;;;4221974;28;20213;-77
2023/11/16 10:03:25;;;;;;;10.37;2.97;;;7.90;99.90;;;;;;4222817;28;20197;-78
2023/11/16 10:05:34;;;;;;;5.57;1.50;;;7.90;99.90;;;;;;4218810;28;20197;-78
2023/11/16 10:07:38;;;;;;;6.47;1.20;;;8.00;99.90;;;;;;4217314;28;20217;-78
2023/11/16 10:09:43;;;;;;;6.23;1.40;;;8.10;99.90;;;;;;4218922;28;20280;-78
2023/11/16 10:11:45;;;;;;;4.43;1.50;;;8.10;99.90;;;;;;4218841;28;20210;-78
2023/11/16 10:13:53;;;;;;;4.13;1.30;;;8.20;99.90;;;;;;4218097;28;20263;-78
2023/11/16 10:16:02;;;;;;;3.13;1.10;;;8.30;99.90;;;;;;4217152;28;20232;-76
2023/11/16 10:18:09;;;;;;;6.50;1.60;;;8.30;99.90;;;;;;4220606;28;20934;-79
2023/11/16 10:20:13;;;;;;;5.27;1.63;;;8.40;99.90;;;;;;4219855;28;20217;-79
2023/11/16 10:22:15;;;;;;;5.47;1.60;;;8.40;99.90;;;;;;4223853;28;20210;-79
2023/11/16 10:24:20;;;;;;;7.07;2.43;;;8.60;99.90;;;;;;4223507;28;20557;-78
2023/11/16 10:26:22;;;;;;;4.90;1.53;;;8.70;99.90;;;;;;4220252;28;20225;-79
2023/11/16 10:28:24;;;;;;;5.07;2.00;;;8.90;99.90;;;;;;4218253;28;20279;-78
2023/11/16 10:30:25;;;;;;;5.20;1.30;;;8.90;99.90;;;;;;4219753;28;20222;-79
2023/11/16 10:32:29;;;;;;;5.57;1.77;;;9.10;99.90;;;;;;4222595;28;20206;-79
2023/11/16 10:34:36;;;;;;;8.17;1.57;;;9.10;99.90;;;;;;4220965;28;20207;-79
2023/11/16 10:36:40;;;;;;;8.47;3.07;;;9.20;99.90;;;;;;4225201;28;20220;-78
2023/11/16 10:38:46;;;;;;;12.57;3.77;;;9.30;99.90;;;;;;4224228;27;20267;-78
2023/11/16 10:40:51;;;;;;;5.93;1.53;;;9.40;99.90;;;;;;4227858;28;20211;-80
2023/11/16 10:42:54;;;;;;;4.77;1.63;;;9.50;99.90;;;;;;4234484;28;20217;-85
2023/11/16 10:44:58;;;;;;;5.77;1.90;;;9.60;99.90;;;;;;4231021;28;20692;-87
2023/11/16 10:47:01;;;;;;;4.87;1.80;;;9.70;99.90;;;;;;4225983;27;20631;-80
2023/11/16 10:49:04;;;;;;;5.23;1.50;;;9.80;99.90;;;;;;4229583;27;20231;-81
2023/11/16 10:51:09;;;;;;;28.13;8.10;;;9.80;99.90;;;;;;4224160;28;20249;-77